createdAt,value
2023-04-16T00:00:07.897Z,60.23
2023-04-16T00:01:13.225Z,60.19
2023-04-16T00:02:19.009Z,60.09
2023-04-16T00:03:25.083Z,60.12
2023-04-16T00:04:30.771Z,60.26
2023-04-16T00:05:36.213Z,60.1
2023-04-16T00:06:41.512Z,60.19
2023-04-16T00:07:46.883Z,60.32
2023-04-16T00:08:52.203Z,60.11
2023-04-16T00:09:57.513Z,60.25
2023-04-16T00:11:02.847Z,60.42
2023-04-16T00:12:08.209Z,60.22
2023-04-16T00:13:13.504Z,60.33
2023-04-16T00:14:18.890Z,60.45
2023-04-16T00:15:24.215Z,60.26
2023-04-16T00:16:29.631Z,60.3
2023-04-16T00:17:35.081Z,60.4
2023-04-16T00:18:40.410Z,60.72
2023-04-16T00:19:45.758Z,60.27
2023-04-16T00:20:51.079Z,60.41
2023-04-16T00:21:57.421Z,60.54
2023-04-16T00:23:02.818Z,60.36
2023-04-16T00:24:08.136Z,60.66
2023-04-16T00:25:13.476Z,60.46
2023-04-16T00:26:18.819Z,60.47
2023-04-16T00:27:24.179Z,60.37
2023-04-16T00:28:29.498Z,60.39
2023-04-16T00:29:35.109Z,60.35
2023-04-16T00:30:40.523Z,60.36
2023-04-16T00:31:45.905Z,60.58
2023-04-16T00:32:51.382Z,60.37
2023-04-16T00:33:56.759Z,60.45
2023-04-16T00:35:02.099Z,60.59
2023-04-16T00:36:07.438Z,60.72
2023-04-16T00:37:12.753Z,60.65
2023-04-16T00:38:18.396Z,60.64
2023-04-16T00:39:23.749Z,60.84
2023-04-16T00:40:29.060Z,60.79
2023-04-16T00:41:34.398Z,60.86
2023-04-16T00:42:39.713Z,60.69
2023-04-16T00:43:45.154Z,60.65
2023-04-16T00:44:50.499Z,60.97
2023-04-16T00:45:55.934Z,60.77
2023-04-16T00:47:01.301Z,60.76
2023-04-16T00:48:06.876Z,60.74
2023-04-16T00:49:12.673Z,60.94
2023-04-16T00:50:20.310Z,60.77
2023-04-16T00:51:25.719Z,60.53
2023-04-16T00:52:31.067Z,60.66
2023-04-16T00:53:36.411Z,60.7
2023-04-16T00:54:41.746Z,60.73
2023-04-16T00:55:48.133Z,61.17
2023-04-16T00:56:53.465Z,60.73
2023-04-16T00:57:58.800Z,60.94
2023-04-16T00:59:04.301Z,60.83
2023-04-16T01:00:09.652Z,60.93
2023-04-16T01:01:15.080Z,60.73
2023-04-16T01:02:20.641Z,60.71
2023-04-16T01:03:26.412Z,60.92
2023-04-16T01:04:32.359Z,60.8
2023-04-16T01:05:37.769Z,60.69
2023-04-16T01:06:43.127Z,60.94
2023-04-16T01:07:48.504Z,60.78
2023-04-16T01:08:53.821Z,60.74
2023-04-16T01:09:59.174Z,60.91
2023-04-16T01:11:04.587Z,60.87
2023-04-16T01:12:09.916Z,60.79
2023-04-16T01:13:15.284Z,60.76
2023-04-16T01:14:20.692Z,61.15
2023-04-16T01:15:27.175Z,60.99
2023-04-16T01:16:32.547Z,60.96
2023-04-16T01:17:38.040Z,60.94
2023-04-16T01:18:43.439Z,60.82
2023-04-16T01:19:48.824Z,60.85
2023-04-16T01:20:54.160Z,61.22
2023-04-16T01:21:59.491Z,61.42
2023-04-16T01:23:04.822Z,60.97
2023-04-16T01:24:10.188Z,60.98
2023-04-16T01:25:15.569Z,61.65
2023-04-16T01:26:20.899Z,61.29
2023-04-16T01:27:26.211Z,61.11
2023-04-16T01:28:33.910Z,61.29
2023-04-16T01:29:39.221Z,61.23
2023-04-16T01:30:44.580Z,61.26
2023-04-16T01:31:50.194Z,61.17
2023-04-16T01:32:55.774Z,61.18
2023-04-16T01:34:01.159Z,61.16
2023-04-16T01:35:06.509Z,61.48
2023-04-16T01:36:11.871Z,61.38
2023-04-16T01:37:17.199Z,61.27
2023-04-16T01:38:22.532Z,61.57
2023-04-16T01:39:28.880Z,61.29
2023-04-16T01:40:34.219Z,61.3
2023-04-16T01:41:39.611Z,61.27
2023-04-16T01:42:44.961Z,61.47
2023-04-16T01:43:50.378Z,61.55
2023-04-16T01:44:55.691Z,61.38
2023-04-16T01:46:01.077Z,61.78
2023-04-16T01:47:06.573Z,61.41
2023-04-16T01:48:11.981Z,61.19
2023-04-16T01:49:17.337Z,61.35
2023-04-16T01:50:22.695Z,61.73
2023-04-16T01:51:28.011Z,61.96
2023-04-16T01:52:33.379Z,61.51
2023-04-16T01:53:39.906Z,61.44
2023-04-16T01:54:45.506Z,61.5
2023-04-16T01:55:50.796Z,61.5
2023-04-16T01:56:56.115Z,62.08
2023-04-16T01:58:01.488Z,61.65
2023-04-16T01:59:06.954Z,61.94
2023-04-16T02:00:12.391Z,61.68
2023-04-16T02:01:17.883Z,61.74
2023-04-16T02:02:23.764Z,61.5
2023-04-16T02:03:29.742Z,61.51
2023-04-16T02:04:35.159Z,61.93
2023-04-16T02:05:40.514Z,62.07
2023-04-16T02:06:45.837Z,61.73
2023-04-16T02:07:51.168Z,61.67
2023-04-16T02:08:56.500Z,61.84
2023-04-16T02:10:01.884Z,61.92
2023-04-16T02:11:07.247Z,61.67
2023-04-16T02:12:12.647Z,61.65
2023-04-16T02:13:18.024Z,62.06
2023-04-16T02:14:23.358Z,62.32
2023-04-16T02:15:28.718Z,61.98
2023-04-16T02:16:34.187Z,62.19
2023-04-16T02:17:39.662Z,61.88
2023-04-16T02:18:45.033Z,61.92
2023-04-16T02:19:50.429Z,62.24
2023-04-16T02:20:55.771Z,61.94
2023-04-16T02:22:01.099Z,62.1
2023-04-16T02:23:06.406Z,61.86
2023-04-16T02:24:11.757Z,62.08
2023-04-16T02:25:17.083Z,61.69
2023-04-16T02:26:22.399Z,61.96
2023-04-16T02:27:27.753Z,62.45
2023-04-16T02:28:33.370Z,62.04
2023-04-16T02:29:38.899Z,62.11
2023-04-16T02:30:44.244Z,62.38
2023-04-16T02:31:49.755Z,62.4
2023-04-16T02:32:55.289Z,62.54
2023-04-16T02:34:00.662Z,62.5
2023-04-16T02:35:05.994Z,61.96
2023-04-16T02:36:11.318Z,62.45
2023-04-16T02:37:16.755Z,62.47
2023-04-16T02:38:22.096Z,62.42
2023-04-16T02:39:27.484Z,62.65
2023-04-16T02:40:32.840Z,62.79
2023-04-16T02:41:38.196Z,62.47
2023-04-16T02:42:43.538Z,62.8
2023-04-16T02:43:48.861Z,62.7
2023-04-16T02:44:54.196Z,62.75
2023-04-16T02:45:59.717Z,62.86
2023-04-16T02:47:05.102Z,62.29
2023-04-16T02:48:10.426Z,62.73
2023-04-16T02:49:15.763Z,62.54
2023-04-16T02:50:21.092Z,62.69
2023-04-16T02:51:26.465Z,62.22
2023-04-16T02:52:31.790Z,62.08
2023-04-16T02:53:37.153Z,62.51
2023-04-16T02:54:42.588Z,62.14
2023-04-16T02:55:47.915Z,62.72
2023-04-16T02:56:53.266Z,62.63
2023-04-16T02:57:58.606Z,62.24
2023-04-16T02:59:03.961Z,62.87
2023-04-16T03:00:09.931Z,62.36
2023-04-16T03:01:15.417Z,62.54
2023-04-16T03:02:20.887Z,62.83
2023-04-16T03:03:26.419Z,62.33
2023-04-16T03:04:31.990Z,62.41
2023-04-16T03:05:40.208Z,62.86
2023-04-16T03:06:45.745Z,62.4
2023-04-16T03:07:51.118Z,62.89
2023-04-16T03:08:56.506Z,62.28
2023-04-16T03:10:01.831Z,62.29
2023-04-16T03:11:07.254Z,62.79
2023-04-16T03:12:12.572Z,62.79
2023-04-16T03:13:17.926Z,62.3
2023-04-16T03:14:23.242Z,62.28
2023-04-16T03:15:28.732Z,62.6
2023-04-16T03:16:34.026Z,62.45
2023-04-16T03:17:39.559Z,62.35
2023-04-16T03:18:44.885Z,62.54
2023-04-16T03:19:50.236Z,62.16
2023-04-16T03:20:55.826Z,62.42
2023-04-16T03:22:01.165Z,62.51
2023-04-16T03:23:06.526Z,62.6
2023-04-16T03:24:11.910Z,62.22
2023-04-16T03:25:17.216Z,62.09
2023-04-16T03:26:22.559Z,62.09
2023-04-16T03:27:27.883Z,62.05
2023-04-16T03:28:33.286Z,62.2
2023-04-16T03:29:38.597Z,62.08
2023-04-16T03:30:44.030Z,62.62
2023-04-16T03:31:49.386Z,62.06
2023-04-16T03:32:54.977Z,62.19
2023-04-16T03:34:00.452Z,62.43
2023-04-16T03:35:05.967Z,62.87
2023-04-16T03:36:11.309Z,62.63
2023-04-16T03:37:16.667Z,62.29
2023-04-16T03:38:24.235Z,62.76
2023-04-16T03:39:29.596Z,62.57
2023-04-16T03:40:34.932Z,63.09
2023-04-16T03:41:40.267Z,62.92
2023-04-16T03:42:45.628Z,63.04
2023-04-16T03:43:50.952Z,62.33
2023-04-16T03:44:56.358Z,62.98
2023-04-16T03:46:01.852Z,62.48
2023-04-16T03:47:09.450Z,63.18
2023-04-16T03:48:14.818Z,62.92
2023-04-16T03:49:20.218Z,62.43
2023-04-16T03:50:25.589Z,63.13
2023-04-16T03:51:30.976Z,62.51
2023-04-16T03:52:36.335Z,62.55
2023-04-16T03:53:41.672Z,62.4
2023-04-16T03:54:47.007Z,62.88
2023-04-16T03:55:52.327Z,63.02
2023-04-16T03:56:57.652Z,62.94
2023-04-16T03:58:03.010Z,63.06
2023-04-16T03:59:08.647Z,62.66
2023-04-16T04:00:14.109Z,62.71
2023-04-16T04:01:19.485Z,62.4
2023-04-16T04:02:25.465Z,62.37
2023-04-16T04:03:31.914Z,62.57
2023-04-16T04:04:37.785Z,62.49
2023-04-16T04:05:43.190Z,62.79
2023-04-16T04:06:48.508Z,62.51
2023-04-16T04:07:53.836Z,62.42
2023-04-16T04:08:59.218Z,62.22
2023-04-16T04:10:04.630Z,62.7
2023-04-16T04:11:09.960Z,62.67
2023-04-16T04:12:15.354Z,62.51
2023-04-16T04:13:20.711Z,62.14
2023-04-16T04:14:26.015Z,61.96
2023-04-16T04:15:31.366Z,61.87
2023-04-16T04:16:36.932Z,61.72
2023-04-16T04:17:42.532Z,61.59
2023-04-16T04:18:47.862Z,61.54
2023-04-16T04:20:03.713Z,61.37
2023-04-16T04:21:09.110Z,61.73
2023-04-16T04:22:14.535Z,61.39
2023-04-16T04:23:19.855Z,61.3
2023-04-16T04:24:25.191Z,61.2
2023-04-16T04:25:30.496Z,61.14
2023-04-16T04:26:35.963Z,61.09
2023-04-16T04:27:41.360Z,61.19
2023-04-16T04:28:46.711Z,61.09
2023-04-16T04:29:52.018Z,61.03
2023-04-16T04:30:57.370Z,61.06
2023-04-16T04:32:02.979Z,61.05
2023-04-16T04:33:08.599Z,61.02
2023-04-16T04:34:13.893Z,60.98
2023-04-16T04:35:19.212Z,61.04
2023-04-16T04:36:24.529Z,60.99
2023-04-16T04:37:29.914Z,60.95
2023-04-16T04:38:35.214Z,60.98
2023-04-16T04:39:40.549Z,60.87
2023-04-16T04:40:45.901Z,61.01
2023-04-16T04:41:51.227Z,61.25
2023-04-16T04:42:56.595Z,61.28
2023-04-16T04:44:01.949Z,61.24
2023-04-16T04:45:07.289Z,61.38
2023-04-16T04:46:12.769Z,61.21
2023-04-16T04:47:18.191Z,61.51
2023-04-16T04:48:23.837Z,61.57
2023-04-16T04:49:29.154Z,61.48
2023-04-16T04:50:34.525Z,61.62
2023-04-16T04:51:40.014Z,61.63
2023-04-16T04:52:45.444Z,61.84
2023-04-16T04:53:50.788Z,61.83
2023-04-16T04:54:56.112Z,61.81
2023-04-16T04:56:14.688Z,61.93
2023-04-16T04:57:20.015Z,61.98
2023-04-16T04:58:25.340Z,62.03
2023-04-16T04:59:31.684Z,61.91
2023-04-16T05:00:37.065Z,62.07
2023-04-16T05:01:42.784Z,62.17
2023-04-16T05:02:48.369Z,62.2
2023-04-16T05:03:57.251Z,62.14
2023-04-16T05:05:02.898Z,62.07
2023-04-16T05:06:08.279Z,61.89
2023-04-16T05:07:13.611Z,62.03
2023-04-16T05:08:18.992Z,62.1
2023-04-16T05:09:24.344Z,62.04
2023-04-16T05:10:29.780Z,62.13
2023-04-16T05:11:35.109Z,61.92
2023-04-16T05:12:40.457Z,61.99
2023-04-16T05:13:45.828Z,62.17
2023-04-16T05:14:51.244Z,62.02
2023-04-16T05:15:56.598Z,61.95
2023-04-16T05:17:02.336Z,61.96
2023-04-16T05:18:07.818Z,61.94
2023-04-16T05:19:13.736Z,62.02
2023-04-16T05:20:19.119Z,62.05
2023-04-16T05:21:24.643Z,61.74
2023-04-16T05:22:30.032Z,62.15
2023-04-16T05:23:35.392Z,61.77
2023-04-16T05:24:40.731Z,62.45
2023-04-16T05:25:46.100Z,61.86
2023-04-16T05:26:51.451Z,61.83
2023-04-16T05:27:56.767Z,61.86
2023-04-16T05:29:02.120Z,61.95
2023-04-16T05:30:07.500Z,62.21
2023-04-16T05:31:13.161Z,61.9
2023-04-16T05:32:18.646Z,62.28
2023-04-16T05:33:27.026Z,61.86
2023-04-16T05:34:32.365Z,62.18
2023-04-16T05:35:37.749Z,62.22
2023-04-16T05:36:43.134Z,61.93
2023-04-16T05:37:48.472Z,61.7
2023-04-16T05:38:53.784Z,61.67
2023-04-16T05:39:59.104Z,61.54
2023-04-16T05:41:06.898Z,62.32
2023-04-16T05:42:12.266Z,62.2
2023-04-16T05:43:17.634Z,61.69
2023-04-16T05:44:23.049Z,62.19
2023-04-16T05:45:30.595Z,61.83
2023-04-16T05:46:36.106Z,61.86
2023-04-16T05:47:41.642Z,62.12
2023-04-16T05:48:47.008Z,62.24
2023-04-16T05:49:52.319Z,62.11
2023-04-16T05:50:57.662Z,61.96
2023-04-16T05:52:02.946Z,62.23
2023-04-16T05:53:08.278Z,61.91
2023-04-16T05:54:13.648Z,62.16
2023-04-16T05:55:19.010Z,62.14
2023-04-16T05:56:24.360Z,61.78
2023-04-16T05:57:29.701Z,61.95
2023-04-16T05:58:37.403Z,61.96
2023-04-16T05:59:42.751Z,61.91
2023-04-16T06:00:48.100Z,62
2023-04-16T06:01:53.595Z,62.27
2023-04-16T06:02:59.505Z,62.31
2023-04-16T06:04:05.453Z,62.14
2023-04-16T06:05:10.966Z,62.04
2023-04-16T06:06:16.358Z,61.99
2023-04-16T06:07:21.921Z,62.05
2023-04-16T06:08:27.214Z,62.04
2023-04-16T06:09:32.529Z,62.05
2023-04-16T06:10:37.908Z,62.06
2023-04-16T06:11:43.265Z,61.89
2023-04-16T06:12:48.659Z,61.99
2023-04-16T06:13:54.006Z,62.14
2023-04-16T06:14:59.367Z,62.22
2023-04-16T06:16:04.824Z,62.27
2023-04-16T06:17:10.256Z,62.4
2023-04-16T06:18:15.762Z,62.58
2023-04-16T06:19:21.187Z,62.67
2023-04-16T06:20:26.517Z,62.55
2023-04-16T06:21:31.886Z,62.89
2023-04-16T06:22:37.265Z,62.46
2023-04-16T06:23:42.591Z,62.67
2023-04-16T06:24:47.945Z,62.37
2023-04-16T06:25:54.287Z,62.83
2023-04-16T06:26:59.601Z,62.46
2023-04-16T06:28:04.929Z,62.4
2023-04-16T06:29:11.170Z,62.26
2023-04-16T06:30:16.738Z,62.52
2023-04-16T06:31:22.185Z,62.21
2023-04-16T06:32:27.675Z,63.01
2023-04-16T06:33:33.020Z,62.42
2023-04-16T06:34:38.358Z,62.56
2023-04-16T06:35:44.738Z,62.65
2023-04-16T06:36:50.084Z,62.73
2023-04-16T06:37:55.415Z,62.87
2023-04-16T06:39:00.721Z,62.31
2023-04-16T06:40:06.262Z,62.84
2023-04-16T06:41:11.589Z,62.23
2023-04-16T06:42:16.907Z,62.84
2023-04-16T06:43:22.223Z,63.07
2023-04-16T06:44:27.724Z,62.95
2023-04-16T06:45:33.119Z,62.73
2023-04-16T06:46:38.551Z,62.73
2023-04-16T06:47:44.071Z,62.59
2023-04-16T06:48:49.444Z,63.01
2023-04-16T06:49:54.760Z,62.49
2023-04-16T06:51:00.173Z,62.41
2023-04-16T06:52:08.368Z,62.47
2023-04-16T06:53:13.804Z,62.57
2023-04-16T06:54:19.229Z,62.93
2023-04-16T06:55:24.575Z,62.75
2023-04-16T06:56:29.902Z,63.2
2023-04-16T06:57:37.823Z,62.91
2023-04-16T06:58:43.177Z,63.05
2023-04-16T06:59:48.494Z,63.07
2023-04-16T07:00:54.009Z,63.04
2023-04-16T07:01:59.748Z,62.91
2023-04-16T07:03:05.717Z,62.9
2023-04-16T07:04:11.756Z,62.92
2023-04-16T07:05:17.495Z,62.77
2023-04-16T07:06:22.827Z,62.76
2023-04-16T07:07:28.162Z,62.68
2023-04-16T07:08:33.480Z,62.47
2023-04-16T07:09:41.872Z,62.45
2023-04-16T07:10:47.208Z,62.41
2023-04-16T07:11:52.673Z,61.73
2023-04-16T07:12:57.974Z,61.55
2023-04-16T07:14:03.409Z,60.27
2023-04-16T07:15:08.741Z,60.72
2023-04-16T07:16:14.272Z,60.63
2023-04-16T07:17:19.650Z,59.97
2023-04-16T07:18:24.990Z,60.08
2023-04-16T07:19:30.358Z,59.91
2023-04-16T07:20:35.707Z,59.92
2023-04-16T07:21:41.042Z,59.69
2023-04-16T07:22:46.381Z,59.63
2023-04-16T07:23:51.730Z,59.51
2023-04-16T07:24:57.078Z,59.42
2023-04-16T07:26:02.389Z,59.32
2023-04-16T07:27:07.991Z,59.26
2023-04-16T07:28:13.398Z,59.25
2023-04-16T07:29:18.707Z,59.19
2023-04-16T07:30:24.163Z,59.17
2023-04-16T07:31:29.706Z,59.06
2023-04-16T07:32:35.235Z,59.01
2023-04-16T07:33:40.633Z,58.98
2023-04-16T07:34:45.999Z,58.96
2023-04-16T07:35:51.371Z,58.95
2023-04-16T07:36:56.762Z,58.92
2023-04-16T07:38:02.129Z,58.8
2023-04-16T07:39:07.579Z,58.84
2023-04-16T07:40:12.989Z,58.88
2023-04-16T07:41:18.358Z,58.93
2023-04-16T07:42:23.697Z,58.92
2023-04-16T07:43:29.031Z,58.87
2023-04-16T07:44:34.337Z,58.8
2023-04-16T07:45:41.301Z,58.84
2023-04-16T07:46:50.290Z,58.84
2023-04-16T07:47:55.868Z,58.88
2023-04-16T07:49:01.203Z,58.88
2023-04-16T07:50:06.546Z,58.91
2023-04-16T07:51:11.941Z,58.92
2023-04-16T07:52:17.353Z,58.96
2023-04-16T07:53:22.727Z,59.02
2023-04-16T07:54:30.660Z,59.14
2023-04-16T07:55:35.957Z,59.13
2023-04-16T07:56:41.342Z,59.16
2023-04-16T07:57:46.719Z,59.32
2023-04-16T07:58:52.049Z,59.45
2023-04-16T07:59:57.359Z,59.58
2023-04-16T08:01:02.741Z,59.52
2023-04-16T08:02:08.285Z,59.75
2023-04-16T08:03:17.674Z,59.71
2023-04-16T08:04:23.802Z,59.8
2023-04-16T08:05:29.454Z,59.74
2023-04-16T08:06:34.828Z,59.83
2023-04-16T08:07:40.223Z,60.02
2023-04-16T08:08:45.580Z,59.99
2023-04-16T08:09:50.952Z,60.03
2023-04-16T08:10:56.370Z,60.11
2023-04-16T08:12:01.853Z,59.94
2023-04-16T08:13:07.236Z,59.85
2023-04-16T08:14:12.585Z,59.78
2023-04-16T08:15:17.982Z,59.93
2023-04-16T08:16:23.665Z,59.7
2023-04-16T08:17:29.301Z,59.75
2023-04-16T08:18:36.945Z,59.67
2023-04-16T08:19:42.282Z,59.77
2023-04-16T08:20:47.604Z,59.81
2023-04-16T08:21:52.949Z,59.75
2023-04-16T08:22:58.290Z,59.66
2023-04-16T08:24:03.692Z,59.63
2023-04-16T08:25:09.014Z,59.73
2023-04-16T08:26:14.364Z,59.61
2023-04-16T08:27:22.569Z,59.61
2023-04-16T08:28:27.903Z,59.69
2023-04-16T08:29:33.255Z,59.47
2023-04-16T08:30:38.640Z,59.62
2023-04-16T08:31:44.318Z,59.48
2023-04-16T08:32:52.750Z,59.37
2023-04-16T08:33:58.096Z,59.78
2023-04-16T08:35:03.607Z,59.57
2023-04-16T08:36:08.949Z,59.62
2023-04-16T08:37:14.247Z,59.55
2023-04-16T08:38:19.558Z,59.6
2023-04-16T08:39:24.920Z,59.73
2023-04-16T08:40:30.267Z,59.58
2023-04-16T08:41:35.624Z,59.48
2023-04-16T08:42:41.004Z,59.61
2023-04-16T08:43:46.405Z,59.54
2023-04-16T08:44:52.187Z,59.6
2023-04-16T08:45:57.540Z,59.57
2023-04-16T08:47:03.091Z,59.58
2023-04-16T08:48:08.471Z,59.72
2023-04-16T08:49:14.218Z,59.97
2023-04-16T08:50:19.579Z,59.77
2023-04-16T08:51:24.950Z,59.69
2023-04-16T08:52:30.494Z,59.69
2023-04-16T08:53:35.866Z,59.67
2023-04-16T08:54:41.205Z,59.72
2023-04-16T08:55:46.538Z,59.88
2023-04-16T08:56:51.872Z,60
2023-04-16T08:57:57.226Z,59.88
2023-04-16T08:59:02.524Z,59.73
2023-04-16T09:00:07.995Z,59.8
2023-04-16T09:01:13.373Z,59.81
2023-04-16T09:02:19.137Z,59.89
2023-04-16T09:03:25.079Z,60.09
2023-04-16T09:04:31.381Z,59.93
2023-04-16T09:05:36.781Z,59.91
2023-04-16T09:06:42.121Z,60.24
2023-04-16T09:07:47.449Z,59.95
2023-04-16T09:08:52.839Z,59.88
2023-04-16T09:09:58.228Z,60.02
2023-04-16T09:11:03.570Z,60.04
2023-04-16T09:12:08.925Z,60.19
2023-04-16T09:13:14.307Z,60.03
2023-04-16T09:14:19.708Z,60.14
2023-04-16T09:15:25.038Z,60.18
2023-04-16T09:16:30.466Z,60.2
2023-04-16T09:17:35.929Z,60.22
2023-04-16T09:18:41.289Z,60.19
2023-04-16T09:19:46.723Z,60.21
2023-04-16T09:20:52.086Z,60.06
2023-04-16T09:21:57.429Z,60.04
2023-04-16T09:23:02.841Z,60.21
2023-04-16T09:24:08.217Z,60.16
2023-04-16T09:25:13.571Z,60.1
2023-04-16T09:26:18.988Z,60.25
2023-04-16T09:27:27.392Z,60.22
2023-04-16T09:28:32.694Z,60.45
2023-04-16T09:29:38.057Z,60.77
2023-04-16T09:30:43.371Z,60.42
2023-04-16T09:31:48.882Z,60.51
2023-04-16T09:32:54.359Z,60.43
2023-04-16T09:33:59.745Z,60.21
2023-04-16T09:35:05.136Z,60.51
2023-04-16T09:36:10.468Z,60.37
2023-04-16T09:37:15.803Z,60.42
2023-04-16T09:38:21.133Z,60.37
2023-04-16T09:39:26.565Z,60.42
2023-04-16T09:40:32.054Z,60.45
2023-04-16T09:41:37.599Z,60.55
2023-04-16T09:42:42.953Z,60.75
2023-04-16T09:43:48.292Z,60.49
2023-04-16T09:44:53.693Z,60.74
2023-04-16T09:45:59.158Z,60.29
2023-04-16T09:47:04.509Z,60.51
2023-04-16T09:48:09.883Z,60.53
2023-04-16T09:49:15.569Z,60.55
2023-04-16T09:50:21.792Z,60.44
2023-04-16T09:51:27.207Z,60.33
2023-04-16T09:52:32.607Z,60.45
2023-04-16T09:53:37.982Z,60.35
2023-04-16T09:54:43.324Z,60.41
2023-04-16T09:55:49.701Z,60.4
2023-04-16T09:56:55.036Z,60.57
2023-04-16T09:58:00.423Z,60.99
2023-04-16T09:59:05.773Z,61.39
2023-04-16T10:00:11.462Z,61.25
2023-04-16T10:01:16.966Z,61.24
2023-04-16T10:02:22.611Z,61.25
2023-04-16T10:03:29.256Z,61.46
2023-04-16T10:04:34.925Z,61.32
2023-04-16T10:05:40.316Z,61.4
2023-04-16T10:06:45.641Z,61.5
2023-04-16T10:07:50.997Z,61.44
2023-04-16T10:08:56.333Z,61.42
2023-04-16T10:10:01.757Z,61.25
2023-04-16T10:11:07.110Z,61.43
2023-04-16T10:12:13.675Z,61.05
2023-04-16T10:13:19.107Z,59
2023-04-16T10:14:24.477Z,60.12
2023-04-16T10:15:29.781Z,59.72
2023-04-16T10:16:35.205Z,59.38
2023-04-16T10:17:40.754Z,59.25
2023-04-16T10:18:46.120Z,58.96
2023-04-16T10:19:51.451Z,59.02
2023-04-16T10:20:56.805Z,58.96
2023-04-16T10:22:02.142Z,58.77
2023-04-16T10:23:07.488Z,58.72
2023-04-16T10:24:12.814Z,58.61
2023-04-16T10:25:18.147Z,58.51
2023-04-16T10:26:23.499Z,58.75
2023-04-16T10:27:28.864Z,58.19
2023-04-16T10:28:34.185Z,58.21
2023-04-16T10:29:39.517Z,57.85
2023-04-16T10:30:44.930Z,58.09
2023-04-16T10:31:50.310Z,57.78
2023-04-16T10:32:56.318Z,57.86
2023-04-16T10:34:02.953Z,57.85
2023-04-16T10:35:08.370Z,57.82
2023-04-16T10:36:13.785Z,57.69
2023-04-16T10:37:19.175Z,57.61
2023-04-16T10:38:24.520Z,57.48
2023-04-16T10:39:29.865Z,57.38
2023-04-16T10:40:35.256Z,57.43
2023-04-16T10:41:40.714Z,57.27
2023-04-16T10:42:46.019Z,57.19
2023-04-16T10:43:51.351Z,57.18
2023-04-16T10:44:56.688Z,57.07
2023-04-16T10:46:02.180Z,56.99
2023-04-16T10:47:07.498Z,56.95
2023-04-16T10:48:12.837Z,57.04
2023-04-16T10:49:18.239Z,56.86
2023-04-16T10:50:23.551Z,56.92
2023-04-16T10:51:28.926Z,57
2023-04-16T10:52:34.286Z,56.87
2023-04-16T10:53:39.636Z,56.91
2023-04-16T10:54:44.975Z,56.94
2023-04-16T10:55:50.309Z,56.83
2023-04-16T10:56:55.675Z,56.82
2023-04-16T10:58:00.984Z,56.74
2023-04-16T10:59:06.312Z,56.7
2023-04-16T11:00:11.662Z,56.69
2023-04-16T11:01:17.240Z,56.73
2023-04-16T11:02:24.166Z,56.67
2023-04-16T11:03:31.558Z,56.68
2023-04-16T11:04:37.519Z,56.62
2023-04-16T11:05:43.060Z,56.61
2023-04-16T11:06:48.367Z,56.59
2023-04-16T11:07:53.694Z,56.62
2023-04-16T11:08:58.984Z,56.68
2023-04-16T11:10:04.429Z,56.57
2023-04-16T11:11:09.760Z,56.57
2023-04-16T11:12:15.125Z,56.52
2023-04-16T11:13:20.445Z,56.46
2023-04-16T11:14:25.772Z,56.51
2023-04-16T11:15:31.146Z,56.5
2023-04-16T11:16:36.576Z,56.5
2023-04-16T11:17:42.242Z,56.44
2023-04-16T11:18:56.959Z,56.48
2023-04-16T11:20:02.459Z,56.47
2023-04-16T11:21:07.788Z,56.49
2023-04-16T11:22:13.136Z,56.55
2023-04-16T11:23:18.480Z,56.52
2023-04-16T11:24:26.278Z,56.57
2023-04-16T11:25:31.847Z,56.59
2023-04-16T11:26:37.241Z,56.61
2023-04-16T11:27:42.653Z,56.47
2023-04-16T11:28:48.249Z,56.57
2023-04-16T11:29:53.573Z,56.7
2023-04-16T11:30:59.012Z,56.69
2023-04-16T11:32:04.389Z,56.77
2023-04-16T11:33:09.823Z,56.77
2023-04-16T11:34:15.163Z,56.86
2023-04-16T11:35:20.593Z,56.79
2023-04-16T11:37:07.589Z,56.75
2023-04-16T11:38:13.134Z,56.77
2023-04-16T11:39:18.445Z,56.75
2023-04-16T11:40:23.788Z,56.7
2023-04-16T11:41:29.198Z,56.73
2023-04-16T11:42:34.678Z,56.75
2023-04-16T11:43:40.141Z,56.67
2023-04-16T11:44:45.470Z,56.66
2023-04-16T11:45:50.846Z,56.7
2023-04-16T11:46:56.412Z,56.7
2023-04-16T11:48:01.976Z,56.65
2023-04-16T11:49:07.452Z,56.65
2023-04-16T11:50:12.833Z,56.67
2023-04-16T11:51:18.174Z,56.68
2023-04-16T11:52:23.506Z,56.64
2023-04-16T11:53:28.872Z,56.63
2023-04-16T11:54:34.222Z,56.68
2023-04-16T11:55:39.554Z,56.73
2023-04-16T11:56:44.888Z,56.66
2023-04-16T11:57:50.228Z,56.7
2023-04-16T11:58:57.500Z,56.68
2023-04-16T12:00:08.058Z,56.64
2023-04-16T12:01:14.540Z,56.67
2023-04-16T12:02:20.197Z,56.69
2023-04-16T12:03:26.100Z,56.73
2023-04-16T12:04:31.799Z,56.63
2023-04-16T12:05:37.203Z,56.58
2023-04-16T12:06:42.530Z,56.46
2023-04-16T12:07:47.899Z,56.41
2023-04-16T12:08:53.241Z,56.38
2023-04-16T12:09:58.605Z,56.26
2023-04-16T12:11:03.947Z,56.3
2023-04-16T12:12:09.315Z,56.18
2023-04-16T12:13:14.721Z,56.16
2023-04-16T12:14:20.029Z,56.24
2023-04-16T12:15:25.361Z,56.13
2023-04-16T12:16:30.851Z,56.2
2023-04-16T12:17:36.686Z,56.17
2023-04-16T12:18:42.048Z,56.01
2023-04-16T12:19:47.417Z,56.07
2023-04-16T12:20:52.854Z,56.02
2023-04-16T12:21:58.169Z,56.02
2023-04-16T12:23:03.554Z,55.97
2023-04-16T12:24:08.894Z,56.04
2023-04-16T12:25:14.269Z,56.01
2023-04-16T12:26:19.710Z,56.04
2023-04-16T12:27:25.032Z,56.08
2023-04-16T12:28:30.390Z,56.02
2023-04-16T12:29:35.717Z,55.85
2023-04-16T12:30:41.138Z,55.95
2023-04-16T12:31:46.458Z,55.92
2023-04-16T12:32:52.360Z,55.94
2023-04-16T12:33:57.882Z,55.98
2023-04-16T12:35:03.460Z,55.97
2023-04-16T12:36:08.839Z,55.97
2023-04-16T12:37:14.723Z,56
2023-04-16T12:38:21.260Z,55.93
2023-04-16T12:39:28.109Z,55.9
2023-04-16T12:40:33.474Z,55.91
2023-04-16T12:41:38.806Z,56.16
2023-04-16T12:42:44.124Z,56.17
2023-04-16T12:43:49.493Z,56.21
2023-04-16T12:44:54.856Z,56.32
2023-04-16T12:46:01.694Z,56.14
2023-04-16T12:47:08.353Z,56.1
2023-04-16T12:48:13.698Z,56.06
2023-04-16T12:49:19.053Z,55.98
2023-04-16T12:50:24.536Z,55.92
2023-04-16T12:51:29.890Z,56
2023-04-16T12:52:35.228Z,55.9
2023-04-16T12:53:40.574Z,55.9
2023-04-16T12:54:45.902Z,55.86
2023-04-16T12:55:51.272Z,55.86
2023-04-16T12:56:56.609Z,55.92
2023-04-16T12:58:01.934Z,55.98
2023-04-16T12:59:07.302Z,56.07
2023-04-16T13:00:12.824Z,56.17
2023-04-16T13:01:18.252Z,56.25
2023-04-16T13:02:24.003Z,56.27
2023-04-16T13:03:30.027Z,56.27
2023-04-16T13:04:35.635Z,56.33
2023-04-16T13:05:41.024Z,56.35
2023-04-16T13:06:46.388Z,56.37
2023-04-16T13:07:51.756Z,56.37
2023-04-16T13:08:57.077Z,56.39
2023-04-16T13:10:02.473Z,56.46
2023-04-16T13:11:07.929Z,56.42
2023-04-16T13:12:13.291Z,56.42
2023-04-16T13:13:19.212Z,56.46
2023-04-16T13:14:24.526Z,56.44
2023-04-16T13:15:30.045Z,56.42
2023-04-16T13:16:35.433Z,56.45
2023-04-16T13:17:40.938Z,56.51
2023-04-16T13:18:46.314Z,56.46
2023-04-16T13:19:52.650Z,56.49
2023-04-16T13:20:58.003Z,56.5
2023-04-16T13:22:03.322Z,56.53
2023-04-16T13:23:08.657Z,56.54
2023-04-16T13:24:14.001Z,56.51
2023-04-16T13:25:19.312Z,56.5
2023-04-16T13:26:24.621Z,56.54
2023-04-16T13:27:29.982Z,56.56
2023-04-16T13:28:35.395Z,56.51
2023-04-16T13:29:40.747Z,56.37
2023-04-16T13:30:46.051Z,56.24
2023-04-16T13:31:51.788Z,56.14
2023-04-16T13:32:57.320Z,56.18
2023-04-16T13:34:02.673Z,56.19
2023-04-16T13:35:08.013Z,56.05
2023-04-16T13:36:13.473Z,56.04
2023-04-16T13:37:18.801Z,56.06
2023-04-16T13:38:24.257Z,56.07
2023-04-16T13:39:29.633Z,56.15
2023-04-16T13:40:34.966Z,55.96
2023-04-16T13:41:40.337Z,56
2023-04-16T13:42:45.737Z,55.99
2023-04-16T13:43:51.370Z,55.97
2023-04-16T13:44:56.787Z,55.92
2023-04-16T13:46:02.388Z,56
2023-04-16T13:47:08.181Z,55.94
2023-04-16T13:48:13.628Z,56
2023-04-16T13:49:18.965Z,55.92
2023-04-16T13:50:24.286Z,55.96
2023-04-16T13:51:29.646Z,56.02
2023-04-16T13:52:34.991Z,56.14
2023-04-16T13:53:40.373Z,56.13
2023-04-16T13:54:45.760Z,56.1
2023-04-16T13:55:51.078Z,55.99
2023-04-16T13:56:56.380Z,55.9
2023-04-16T13:58:01.717Z,55.97
2023-04-16T13:59:07.131Z,55.89
2023-04-16T14:00:15.246Z,55.84
2023-04-16T14:01:21.133Z,55.81
2023-04-16T14:02:26.916Z,55.79
2023-04-16T14:03:33.723Z,55.72
2023-04-16T14:04:39.191Z,55.64
2023-04-16T14:05:46.963Z,55.69
2023-04-16T14:06:52.354Z,55.72
2023-04-16T14:07:57.671Z,55.73